createdAt,value
2022-11-12T00:00:11.804Z,2.5
2022-11-12T00:03:11.805Z,2.5
2022-11-12T00:06:11.744Z,2.5
2022-11-12T00:09:11.744Z,2.4
2022-11-12T00:12:11.786Z,2.4
2022-11-12T00:15:11.754Z,2.4
2022-11-12T00:18:11.697Z,2.4
2022-11-12T00:21:11.812Z,2.2
2022-11-12T00:24:11.716Z,2.2
2022-11-12T00:27:11.696Z,2.2
2022-11-12T00:30:11.795Z,2.2
2022-11-12T00:33:11.736Z,2.2
2022-11-12T00:36:11.913Z,2.1
2022-11-12T00:39:11.792Z,2.1
2022-11-12T00:42:11.838Z,2.1
2022-11-12T00:45:11.769Z,2
2022-11-12T00:48:11.748Z,2
2022-11-12T00:51:11.811Z,2
2022-11-12T00:54:11.813Z,2
2022-11-12T00:57:11.890Z,1.9
2022-11-12T01:00:11.985Z,1.9
2022-11-12T01:03:11.743Z,1.8
2022-11-12T01:06:11.776Z,1.8
2022-11-12T01:09:11.872Z,1.8
2022-11-12T01:12:11.751Z,1.6
2022-11-12T01:15:11.710Z,1.6
2022-11-12T01:18:11.765Z,1.6
2022-11-12T01:21:11.864Z,1.5
2022-11-12T01:24:11.764Z,1.5
2022-11-12T01:27:11.731Z,1.5
2022-11-12T01:30:11.752Z,1.5
2022-11-12T01:33:11.757Z,1.5
2022-11-12T01:36:11.764Z,1.5
2022-11-12T01:39:11.887Z,1.5
2022-11-12T01:42:11.772Z,1.5
2022-11-12T01:45:11.784Z,1.5
2022-11-12T01:48:11.893Z,1.5
2022-11-12T01:51:11.712Z,1.5
2022-11-12T01:54:11.875Z,1.6
2022-11-12T01:57:11.752Z,1.6
2022-11-12T02:00:11.856Z,1.6
2022-11-12T02:03:11.735Z,1.6
2022-11-12T02:06:11.762Z,1.6
2022-11-12T02:09:11.688Z,1.6
2022-11-12T02:12:11.824Z,1.6
2022-11-12T02:15:11.665Z,1.6
2022-11-12T02:18:11.681Z,1.5
2022-11-12T02:21:11.835Z,1.5
2022-11-12T02:24:11.763Z,1.5
2022-11-12T02:27:11.783Z,1.4
2022-11-12T02:30:11.767Z,1.4
2022-11-12T02:33:11.771Z,1.3
2022-11-12T02:36:11.775Z,1.3
2022-11-12T02:39:11.739Z,1.1
2022-11-12T02:42:11.746Z,1.1
2022-11-12T02:45:11.788Z,1.1
2022-11-12T02:48:15.195Z,1.1
2022-11-12T02:51:11.710Z,1
2022-11-12T02:54:11.804Z,1
2022-11-12T02:57:11.773Z,1
2022-11-12T03:00:11.887Z,1
2022-11-12T03:03:11.721Z,1.1
2022-11-12T03:06:11.801Z,1.1
2022-11-12T03:09:11.783Z,1.1
2022-11-12T03:12:11.824Z,1
2022-11-12T03:15:11.887Z,1
2022-11-12T03:18:11.773Z,0.9
2022-11-12T03:21:11.716Z,0.9
2022-11-12T03:24:11.781Z,0.8
2022-11-12T03:27:11.727Z,0.8
2022-11-12T03:30:11.774Z,0.8
2022-11-12T03:33:11.802Z,0.8
2022-11-12T03:36:11.757Z,0.8
2022-11-12T03:39:11.687Z,0.6
2022-11-12T03:42:11.736Z,0.6
2022-11-12T03:45:11.787Z,0.6
2022-11-12T03:48:11.776Z,0.6
2022-11-12T03:51:11.764Z,0.6
2022-11-12T03:54:11.720Z,0.6
2022-11-12T03:57:11.757Z,0.6
2022-11-12T04:00:11.856Z,0.8
2022-11-12T04:03:11.794Z,0.6
2022-11-12T04:06:11.720Z,0.8
2022-11-12T04:09:11.725Z,0.8
2022-11-12T04:12:11.733Z,0.8
2022-11-12T04:15:11.753Z,0.8
2022-11-12T04:18:11.766Z,0.6
2022-11-12T04:21:11.892Z,0.6
2022-11-12T04:24:11.768Z,0.5
2022-11-12T04:27:11.772Z,0.6
2022-11-12T04:30:11.750Z,0.5
2022-11-12T04:33:11.761Z,0.5
2022-11-12T04:36:11.762Z,0.5
2022-11-12T04:39:11.779Z,0.4
2022-11-12T04:42:11.809Z,0.4
2022-11-12T04:45:11.795Z,0.4
2022-11-12T04:48:11.722Z,0.4
2022-11-12T04:51:11.759Z,0.3
2022-11-12T04:54:11.773Z,0.3
2022-11-12T04:57:11.710Z,0.3
2022-11-12T05:00:11.872Z,0.1
2022-11-12T05:03:11.728Z,0.1
2022-11-12T05:06:11.760Z,0.1
2022-11-12T05:09:11.750Z,0.1
2022-11-12T05:12:11.815Z,0
2022-11-12T05:15:11.787Z,0
2022-11-12T05:18:11.787Z,0
2022-11-12T05:21:11.702Z,0
2022-11-12T05:24:41.380Z,0
2022-11-12T05:27:11.715Z,0
2022-11-12T05:30:11.730Z,0
2022-11-12T05:33:11.785Z,0
2022-11-12T05:36:11.728Z,-0.1
2022-11-12T05:39:11.866Z,-0.3
2022-11-12T05:42:25.591Z,-0.3
2022-11-12T05:45:11.673Z,-0.3
2022-11-12T05:48:11.744Z,-0.3
2022-11-12T05:51:25.177Z,-0.3
2022-11-12T05:54:11.741Z,-0.4
2022-11-12T05:57:11.701Z,-0.3
2022-11-12T06:00:11.840Z,-0.3
2022-11-12T06:03:11.937Z,-0.3
2022-11-12T06:06:11.794Z,-0.1
2022-11-12T06:09:11.738Z,0
2022-11-12T06:12:11.791Z,0
2022-11-12T06:15:11.823Z,0
2022-11-12T06:18:11.691Z,0
2022-11-12T06:21:12.207Z,0.1
2022-11-12T06:24:11.696Z,0.1
2022-11-12T06:27:11.794Z,0.3
2022-11-12T06:30:11.909Z,0.4
2022-11-12T06:33:11.700Z,0.5
2022-11-12T06:36:12.211Z,0.6
2022-11-12T06:39:11.799Z,0.6
2022-11-12T06:42:11.766Z,0.8
2022-11-12T06:45:11.821Z,0.9
2022-11-12T06:48:11.872Z,1
2022-11-12T06:51:11.781Z,1.1
2022-11-12T06:54:11.810Z,1.3
2022-11-12T06:57:11.862Z,1.4
2022-11-12T07:00:11.873Z,1.5
2022-11-12T07:03:11.797Z,1.6
2022-11-12T07:06:11.853Z,1.9
2022-11-12T07:09:11.827Z,2
2022-11-12T07:12:11.809Z,2.1
2022-11-12T07:15:11.846Z,2.2
2022-11-12T07:18:11.868Z,2.5
2022-11-12T07:21:11.809Z,2.5
2022-11-12T07:24:11.853Z,2.6
2022-11-12T07:27:11.774Z,2.6
2022-11-12T07:30:11.866Z,2.7
2022-11-12T07:33:11.767Z,2.9
2022-11-12T07:36:11.776Z,3
2022-11-12T07:39:11.773Z,3
2022-11-12T07:42:11.914Z,3.1
2022-11-12T07:45:11.852Z,3.4
2022-11-12T07:48:11.744Z,3.5
2022-11-12T07:51:12.123Z,3.7
2022-11-12T07:54:11.826Z,3.9
2022-11-12T07:57:11.783Z,4.1
2022-11-12T08:00:12.036Z,4.2
2022-11-12T08:03:11.843Z,4.5
2022-11-12T08:06:11.807Z,4.6
2022-11-12T08:09:11.760Z,4.9
2022-11-12T08:12:12.082Z,5.1
2022-11-12T08:15:11.814Z,5.4
2022-11-12T08:18:11.819Z,5.6
2022-11-12T08:21:11.755Z,5.9
2022-11-12T08:24:11.755Z,6
2022-11-12T08:27:11.720Z,6.2
2022-11-12T08:30:11.848Z,6.6
2022-11-12T08:33:12.316Z,7.1
2022-11-12T08:36:11.826Z,8
2022-11-12T08:39:11.797Z,9.4
2022-11-12T08:42:11.824Z,10.4
2022-11-12T08:45:11.820Z,11.9
2022-11-12T08:48:11.913Z,13.3
2022-11-12T08:51:11.800Z,13.8
2022-11-12T08:54:11.825Z,13.5
2022-11-12T08:57:11.818Z,13.5
2022-11-12T09:00:12.126Z,13.4
2022-11-12T09:03:11.819Z,13.4
2022-11-12T09:06:11.833Z,13.4
2022-11-12T09:09:11.775Z,13.5
2022-11-12T09:12:28.441Z,13.6
2022-11-12T09:15:48.916Z,13.9
2022-11-12T09:18:11.825Z,14.1
2022-11-12T09:21:11.785Z,14.3
2022-11-12T09:24:11.887Z,14.5
2022-11-12T09:27:11.797Z,14.7
2022-11-12T09:30:11.922Z,15.3
2022-11-12T09:33:11.925Z,15.5
2022-11-12T09:36:11.833Z,15.6
2022-11-12T09:39:11.737Z,15.5
2022-11-12T09:42:13.450Z,15.5
2022-11-12T09:45:11.831Z,15.5
2022-11-12T09:48:11.852Z,15.6
2022-11-12T09:51:11.849Z,15.6
2022-11-12T09:54:11.803Z,15.8
2022-11-12T09:57:11.754Z,15.9
2022-11-12T10:00:11.917Z,16
2022-11-12T10:03:11.874Z,16
2022-11-12T10:06:23.383Z,16.1
2022-11-12T10:09:11.754Z,16.1
2022-11-12T10:12:15.718Z,16.1
2022-11-12T10:15:11.824Z,16.3
2022-11-12T10:18:11.832Z,16.5
2022-11-12T10:21:11.943Z,16.6
2022-11-12T10:24:12.016Z,16.8
2022-11-12T10:27:11.828Z,17
2022-11-12T10:30:11.893Z,17.1
2022-11-12T10:33:11.767Z,17.4
2022-11-12T10:36:11.962Z,17.4
2022-11-12T10:39:11.784Z,17.5
2022-11-12T10:42:11.850Z,17.5
2022-11-12T10:45:11.863Z,17.5
2022-11-12T10:48:11.900Z,17.5
2022-11-12T10:51:11.781Z,17.5
2022-11-12T10:54:11.894Z,17.5
2022-11-12T10:57:11.817Z,17.6
2022-11-12T11:00:12.011Z,17.9
2022-11-12T11:03:11.887Z,18
2022-11-12T11:06:11.857Z,18.1
2022-11-12T11:09:11.924Z,18.3
2022-11-12T11:12:11.811Z,18.5
2022-11-12T11:15:11.928Z,18.6
2022-11-12T11:18:11.788Z,18.8
2022-11-12T11:21:12.525Z,18.9
2022-11-12T11:24:11.772Z,19.3
2022-11-12T11:27:11.923Z,19.5
2022-11-12T11:30:11.839Z,19.8
2022-11-12T11:33:11.755Z,20
2022-11-12T11:36:11.791Z,21
2022-11-12T11:39:11.799Z,21.2
2022-11-12T11:42:11.823Z,22.2
2022-11-12T11:45:11.859Z,22.8
2022-11-12T11:48:13.800Z,23.3
2022-11-12T11:51:11.795Z,23.4
2022-11-12T11:54:11.895Z,23.4
2022-11-12T11:57:11.763Z,23.6
2022-11-12T12:00:12.100Z,23.7
2022-11-12T12:03:12.440Z,23.7
2022-11-12T12:06:11.819Z,25.4
2022-11-12T12:09:11.821Z,25
2022-11-12T12:12:11.803Z,24.6
2022-11-12T12:15:11.911Z,24.1
2022-11-12T12:18:11.774Z,22.6
2022-11-12T12:21:11.742Z,21.5
2022-11-12T12:24:11.898Z,20.6
2022-11-12T12:27:11.897Z,19.8
2022-11-12T12:30:12.018Z,19
2022-11-12T12:33:11.808Z,18.3
2022-11-12T12:36:11.877Z,17.9
2022-11-12T12:39:11.789Z,17.5
2022-11-12T12:42:11.794Z,17.2
2022-11-12T12:45:11.803Z,17
2022-11-12T12:48:11.946Z,16.9
2022-11-12T12:51:11.768Z,16.6
2022-11-12T12:54:11.813Z,16.4
2022-11-12T12:57:11.827Z,16.4
2022-11-12T13:00:17.972Z,16.4
2022-11-12T13:03:11.780Z,16.4
2022-11-12T13:06:11.812Z,16.5
2022-11-12T13:09:11.767Z,16.6
2022-11-12T13:12:11.876Z,17.6
2022-11-12T13:15:11.835Z,18.6
2022-11-12T13:18:19.352Z,19
2022-11-12T13:21:11.857Z,19.8
2022-11-12T13:24:12.217Z,20.8
2022-11-12T13:27:11.816Z,21.9
2022-11-12T13:30:12.231Z,22.4
2022-11-12T13:33:18.356Z,22.4
2022-11-12T13:36:11.717Z,21.6
2022-11-12T13:39:19.593Z,21.2
2022-11-12T13:42:11.825Z,21.2
2022-11-12T13:45:11.773Z,20.5
2022-11-12T13:48:11.771Z,19.6
2022-11-12T13:51:11.862Z,18.8
2022-11-12T13:54:11.925Z,18.1
2022-11-12T13:57:18.704Z,17.6
2022-11-12T14:00:12.053Z,17.2
2022-11-12T14:03:11.832Z,16.9
2022-11-12T14:06:11.824Z,16.5
2022-11-12T14:09:11.753Z,16.1
2022-11-12T14:12:11.813Z,15.9
2022-11-12T14:15:11.872Z,15.8
2022-11-12T14:18:11.798Z,15.5
2022-11-12T14:21:11.810Z,15.1
2022-11-12T14:24:11.824Z,15
2022-11-12T14:27:11.898Z,14.7
2022-11-12T14:30:11.845Z,14.4
2022-11-12T14:33:11.799Z,14
2022-11-12T14:36:12.279Z,13.5
2022-11-12T14:39:11.762Z,13.1
2022-11-12T14:42:12.188Z,12.6
2022-11-12T14:45:11.879Z,12.2
2022-11-12T14:48:11.933Z,11.9
2022-11-12T14:51:11.882Z,11.6
2022-11-12T14:54:11.788Z,11.3
2022-11-12T14:57:11.765Z,11
2022-11-12T15:00:12.034Z,10.6
2022-11-12T15:03:12.461Z,10.4
2022-11-12T15:06:11.882Z,10
2022-11-12T15:09:11.806Z,9.6
2022-11-12T15:12:11.823Z,9.3
2022-11-12T15:15:11.835Z,8.9
2022-11-12T15:18:11.761Z,8.6
2022-11-12T15:21:11.822Z,8.4
2022-11-12T15:24:11.989Z,8
2022-11-12T15:27:11.793Z,7.7
2022-11-12T15:30:11.969Z,7.5
2022-11-12T15:33:12.082Z,7.4
2022-11-12T15:36:11.726Z,7.1
2022-11-12T15:39:11.738Z,6.9
2022-11-12T15:42:11.765Z,6.7
2022-11-12T15:45:11.715Z,6.5
2022-11-12T15:48:11.783Z,6.4
2022-11-12T15:51:11.808Z,6.1
2022-11-12T15:54:11.747Z,6
2022-11-12T15:57:11.703Z,5.7
2022-11-12T16:00:19.709Z,5.6
2022-11-12T16:03:11.754Z,5.5
2022-11-12T16:06:20.290Z,5.4
2022-11-12T16:09:11.689Z,5.2
2022-11-12T16:12:11.823Z,5.1
2022-11-12T16:15:11.713Z,5
2022-11-12T16:18:11.686Z,4.9
2022-11-12T16:21:13.583Z,4.7
2022-11-12T16:24:11.684Z,4.6
2022-11-12T16:27:11.775Z,4.5
2022-11-12T16:30:11.796Z,4.4
2022-11-12T16:33:11.778Z,4.2
2022-11-12T16:36:11.867Z,4.1
2022-11-12T16:39:11.769Z,4
2022-11-12T16:42:12.143Z,4
2022-11-12T16:45:11.742Z,3.7
2022-11-12T16:48:11.827Z,3.7
2022-11-12T16:51:11.787Z,3.7
2022-11-12T16:54:11.837Z,3.6
2022-11-12T16:57:11.665Z,3.6
2022-11-12T17:00:11.812Z,3.5
2022-11-12T17:03:11.822Z,3.4
2022-11-12T17:06:11.829Z,3.4
2022-11-12T17:09:11.750Z,3.2
2022-11-12T17:12:11.768Z,3.1
2022-11-12T17:15:11.804Z,3.1
2022-11-12T17:18:12.134Z,3
2022-11-12T17:21:11.739Z,3
2022-11-12T17:24:11.689Z,3
2022-11-12T17:27:11.714Z,3
2022-11-12T17:30:11.781Z,3.1
2022-11-12T17:33:11.821Z,3.1
2022-11-12T17:36:11.793Z,3
2022-11-12T17:39:11.759Z,3.1
2022-11-12T17:42:11.758Z,3.1
2022-11-12T17:45:11.854Z,3.1
2022-11-12T17:48:11.794Z,3.2
2022-11-12T17:51:13.322Z,3.4
2022-11-12T17:54:11.714Z,3.4
2022-11-12T17:57:11.736Z,3.5
2022-11-12T18:00:11.735Z,3.5
2022-11-12T18:03:11.724Z,3.5
2022-11-12T18:06:11.715Z,3.5
2022-11-12T18:09:11.787Z,3.4
2022-11-12T18:12:11.720Z,3.4
2022-11-12T18:15:11.723Z,3.4
2022-11-12T18:18:11.821Z,3.2
2022-11-12T18:21:11.716Z,3.2
2022-11-12T18:24:11.737Z,3.1
2022-11-12T18:27:11.699Z,3
2022-11-12T18:30:19.052Z,3
2022-11-12T18:33:11.739Z,2.9
2022-11-12T18:36:11.748Z,2.9
2022-11-12T18:39:11.730Z,2.9
2022-11-12T18:42:11.689Z,3
2022-11-12T18:45:11.803Z,3
2022-11-12T18:48:11.751Z,2.9
2022-11-12T18:51:11.757Z,2.9
2022-11-12T18:54:11.888Z,2.9
2022-11-12T18:57:11.826Z,2.9
2022-11-12T19:00:11.833Z,2.9
2022-11-12T19:03:11.743Z,2.7
2022-11-12T19:06:11.815Z,2.7
2022-11-12T19:09:11.809Z,2.7
2022-11-12T19:12:11.782Z,2.9
2022-11-12T19:15:11.707Z,2.9
2022-11-12T19:18:11.829Z,3
2022-11-12T19:21:11.718Z,3
2022-11-12T19:24:12.646Z,3
2022-11-12T19:27:11.757Z,3
2022-11-12T19:30:14.758Z,3.1
2022-11-12T19:33:11.804Z,3.2
2022-11-12T19:36:18.071Z,3.4
2022-11-12T19:39:11.709Z,3.4
2022-11-12T19:42:11.719Z,3.5
2022-11-12T19:45:11.737Z,3.5
2022-11-12T19:48:11.774Z,3.6
2022-11-12T19:51:11.742Z,3.6
2022-11-12T19:54:11.725Z,3.6
2022-11-12T19:57:11.795Z,3.6
2022-11-12T20:00:11.754Z,3.6
2022-11-12T20:03:11.782Z,3.5
2022-11-12T20:06:11.842Z,3.5
2022-11-12T20:09:11.765Z,3.5
2022-11-12T20:12:11.756Z,3.5
2022-11-12T20:15:11.745Z,3.4
2022-11-12T20:18:11.801Z,3.4
2022-11-12T20:21:11.736Z,3.4
2022-11-12T20:24:11.764Z,3.2
2022-11-12T20:27:12.670Z,3.2
2022-11-12T20:30:11.796Z,3.2
2022-11-12T20:33:11.741Z,3.1
2022-11-12T20:36:11.816Z,3.1
2022-11-12T20:39:11.742Z,3.1
2022-11-12T20:42:11.848Z,3.1
2022-11-12T20:45:11.801Z,3.1
2022-11-12T20:48:11.768Z,3.1
2022-11-12T20:51:35.355Z,3
2022-11-12T20:54:12.225Z,3
2022-11-12T20:57:11.766Z,3.1
2022-11-12T21:00:21.453Z,3.1
2022-11-12T21:03:11.791Z,3.1
2022-11-12T21:06:11.781Z,3.2
2022-11-12T21:09:11.764Z,3.2
2022-11-12T21:12:11.707Z,3.2
2022-11-12T21:15:11.773Z,3.1
2022-11-12T21:18:11.663Z,3.1
2022-11-12T21:21:11.891Z,3.1
2022-11-12T21:24:16.409Z,3
2022-11-12T21:27:11.793Z,3
2022-11-12T21:30:11.842Z,3
2022-11-12T21:33:11.784Z,3
2022-11-12T21:36:18.981Z,3
2022-11-12T21:39:11.728Z,2.9
2022-11-12T21:42:11.770Z,2.9
2022-11-12T21:45:11.819Z,2.7
2022-11-12T21:48:11.795Z,2.7
2022-11-12T21:51:11.701Z,2.6
2022-11-12T21:54:11.763Z,2.6
2022-11-12T21:57:14.869Z,2.6
2022-11-12T22:00:52.534Z,2.6
2022-11-12T22:03:11.853Z,2.6
2022-11-12T22:06:11.749Z,2.7
2022-11-12T22:09:11.843Z,2.9
2022-11-12T22:12:11.703Z,2.9
2022-11-12T22:15:11.707Z,3
2022-11-12T22:18:11.736Z,3.1
2022-11-12T22:21:11.710Z,3.2
2022-11-12T22:24:11.811Z,3.5
2022-11-12T22:27:16.827Z,3.6
2022-11-12T22:30:11.736Z,3.9
2022-11-12T22:33:11.780Z,4
2022-11-12T22:36:11.779Z,4.2
2022-11-12T22:39:11.741Z,4.4
2022-11-12T22:42:11.795Z,4.5
2022-11-12T22:45:11.752Z,4.6
2022-11-12T22:48:11.795Z,4.6
2022-11-12T22:51:12.173Z,4.6
2022-11-12T22:54:11.816Z,4.7
2022-11-12T22:57:11.687Z,4.7
2022-11-12T23:00:12.240Z,4.7
2022-11-12T23:03:11.774Z,4.7
2022-11-12T23:06:11.803Z,4.9
2022-11-12T23:09:11.732Z,4.9
2022-11-12T23:12:11.849Z,4.9
2022-11-12T23:15:11.873Z,4.9
2022-11-12T23:18:11.810Z,4.9
2022-11-12T23:21:11.721Z,4.9
2022-11-12T23:24:11.816Z,4.9
2022-11-12T23:27:11.710Z,4.9
2022-11-12T23:30:11.729Z,4.7
2022-11-12T23:33:11.847Z,4.7
2022-11-12T23:36:11.735Z,4.7
2022-11-12T23:39:11.682Z,4.6
2022-11-12T23:42:11.756Z,4.6
2022-11-12T23:45:11.749Z,4.5
2022-11-12T23:48:11.776Z,4.5
2022-11-12T23:51:11.765Z,4.4
2022-11-12T23:54:11.713Z,4.2
2022-11-12T23:57:11.718Z,4.1
